Time;durP1;ratioP1;P1;durP2;ratioP2;P2;SDS_P1;SDS_P2;PMS_P1;PMS_P2;Temp;Humidity;BMP_temperature;BMP_pressure;BME280_temperature;BME280_humidity;BME280_pressure;Samples;Min_cycle;Max_cycle;Signal;HPM_P1;HPM_P2
2022/11/17 00:00:07;;;;;;;8.23;4.15;;;10.60;99.90;;;;;;1886515;75;21127;-83
2022/11/17 00:02:58;;;;;;;8.38;4.08;;;10.60;99.90;;;;;;1872754;75;21104;-82
2022/11/17 00:05:50;;;;;;;6.22;3.98;;;10.70;99.90;;;;;;1892048;75;21131;-82
2022/11/17 00:11:21;;;;;;;6.08;4.08;;;10.60;99.90;;;;;;1935010;72;22252;-83
2022/11/17 00:17:33;;;;;;;11.08;4.03;;;10.60;99.90;;;;;;1893080;75;21095;-81
2022/11/17 00:23:46;;;;;;;4.75;3.35;;;10.60;99.90;;;;;;1876480;75;21095;-82
2022/11/17 00:27:00;;;;;;;3.80;2.95;;;10.60;99.90;;;;;;1892255;75;21635;-82
2022/11/17 00:35:23;;;;;;;7.37;3.30;;;10.80;99.90;;;;;;1887173;75;21095;-83
2022/11/17 00:38:18;;;;;;;4.75;3.30;;;10.80;99.90;;;;;;1884604;75;21232;-83
2022/11/17 00:43:49;;;;;;;5.15;3.65;;;10.70;99.90;;;;;;1953991;72;22178;-81
2022/11/17 00:46:41;;;;;;;4.67;3.50;;;10.80;99.90;;;;;;1931686;73;21063;-82
2022/11/17 00:52:14;;;;;;;5.78;3.45;;;10.80;99.90;;;;;;1936986;72;22266;-84
2022/11/17 00:55:07;;;;;;;4.90;3.40;;;10.90;99.90;;;;;;1890891;75;21371;-82
2022/11/17 00:57:59;;;;;;;5.72;3.47;;;10.80;99.90;;;;;;1887277;75;21326;-82
2022/11/17 01:00:51;;;;;;;4.58;3.17;;;10.80;99.90;;;;;;1876191;75;21080;-81
2022/11/17 01:06:22;;;;;;;7.67;3.47;;;10.80;99.90;;;;;;1924278;72;22266;-83
2022/11/17 01:09:16;;;;;;;5.55;3.27;;;10.80;99.90;;;;;;1883130;75;21129;-82
2022/11/17 01:12:08;;;;;;;5.58;3.10;;;10.80;99.90;;;;;;1889026;75;21112;-82
2022/11/17 01:14:59;;;;;;;4.42;2.92;;;10.70;99.90;;;;;;1875013;75;21118;-81
2022/11/17 01:17:52;;;;;;;4.05;2.83;;;10.80;99.90;;;;;;1889196;75;21097;-82
2022/11/17 01:20:43;;;;;;;4.95;2.90;;;10.80;99.90;;;;;;1887833;75;21208;-82
2022/11/17 01:26:17;;;;;;;4.50;3.20;;;10.80;99.90;;;;;;1940976;72;22261;-83
2022/11/17 01:29:12;;;;;;;3.77;2.90;;;10.80;99.90;;;;;;1911619;75;21602;-82
2022/11/17 01:32:03;;;;;;;3.70;2.70;;;10.80;99.90;;;;;;1909145;75;21098;-82
2022/11/17 01:34:56;;;;;;;5.90;3.27;;;10.80;99.90;;;;;;1902627;75;21126;-81
2022/11/17 01:43:12;;;;;;;5.55;2.80;;;10.90;99.90;;;;;;1951192;72;22572;-83
2022/11/17 01:48:45;;;;;;;4.05;2.65;;;11.00;99.90;;;;;;1945363;72;22180;-81
2022/11/17 01:51:39;;;;;;;4.58;2.85;;;11.00;99.90;;;;;;1895312;75;21647;-83
2022/11/17 01:54:33;;;;;;;3.80;2.75;;;11.00;99.90;;;;;;1886690;75;21102;-81
2022/11/17 01:57:28;;;;;;;4.05;2.77;;;11.10;99.90;;;;;;1881892;75;21675;-81
2022/11/17 02:00:21;;;;;;;3.02;2.65;;;11.00;99.90;;;;;;1891446;75;21127;-81
2022/11/17 02:03:12;;;;;;;6.78;3.42;;;11.00;99.90;;;;;;1883594;75;21102;-81
2022/11/17 02:06:08;;;;;;;4.72;2.55;;;11.10;99.90;;;;;;1890248;75;21103;-81
2022/11/17 02:11:39;;;;;;;3.10;2.10;;;11.00;99.90;;;;;;1934929;72;22276;-81
2022/11/17 02:14:30;;;;;;;4.20;2.60;;;11.00;99.90;;;;;;1894928;75;21224;-83
2022/11/17 02:20:08;;;;;;;3.58;2.58;;;11.00;99.90;;;;;;1927798;72;22298;-83
2022/11/17 02:23:29;;;;;;;4.65;2.70;;;11.00;99.90;;;;;;1897563;73;21202;-82
2022/11/17 02:29:16;;;;;;;4.87;3.22;;;11.10;99.90;;;;;;1936448;72;22473;-81
2022/11/17 02:32:11;;;;;;;6.08;3.05;;;11.10;99.90;;;;;;1922116;73;21331;-83
2022/11/17 02:35:08;;;;;;;4.72;3.22;;;11.20;99.90;;;;;;1943939;73;21201;-81
2022/11/17 02:38:04;;;;;;;4.17;2.80;;;11.10;99.90;;;;;;1923557;73;21215;-81
2022/11/17 02:41:00;;;;;;;3.75;2.42;;;11.00;99.90;;;;;;1942871;73;21087;-81
2022/11/17 02:44:05;;;;;;;5.30;2.45;;;11.00;99.90;;;;;;1905378;74;21139;-82
2022/11/17 02:49:44;;;;;;;4.45;2.90;;;11.00;99.90;;;;;;1925076;72;22220;-83
2022/11/17 02:52:35;;;;;;;3.72;2.62;;;11.00;99.90;;;;;;1894572;75;21144;-83
2022/11/17 02:58:11;;;;;;;4.92;2.98;;;10.90;99.90;;;;;;1935145;72;22156;-81
2022/11/17 03:01:18;;;;;;;3.72;2.67;;;11.00;99.90;;;;;;1926760;74;21098;-82
2022/11/17 03:04:20;;;;;;;3.80;3.00;;;11.00;99.90;;;;;;1888808;74;21066;-82
2022/11/17 03:07:20;;;;;;;3.45;2.30;;;11.00;99.90;;;;;;1880247;74;21157;-82
2022/11/17 03:10:15;;;;;;;5.28;2.45;;;11.00;99.90;;;;;;1874044;75;21158;-82
2022/11/17 03:16:00;;;;;;;8.23;3.80;;;10.90;99.90;;;;;;1943084;72;22159;-83
2022/11/17 03:18:56;;;;;;;4.15;2.83;;;10.90;99.90;;;;;;1938167;73;21158;-83
2022/11/17 03:21:51;;;;;;;4.65;2.87;;;10.90;99.90;;;;;;1925520;73;21167;-83
2022/11/17 03:24:46;;;;;;;3.87;2.60;;;11.00;99.90;;;;;;1923713;73;21125;-83
2022/11/17 03:27:41;;;;;;;3.75;3.20;;;10.90;99.90;;;;;;1932497;73;21099;-82
2022/11/17 03:30:41;;;;;;;4.92;3.80;;;10.90;99.90;;;;;;1935698;73;21098;-82
2022/11/17 03:36:20;;;;;;;5.17;4.22;;;10.80;99.90;;;;;;1939537;72;28088;-81
2022/11/17 03:39:15;;;;;;;5.60;3.45;;;11.00;99.90;;;;;;1922790;73;21132;-82
2022/11/17 03:42:10;;;;;;;6.17;3.25;;;11.10;99.90;;;;;;1917071;75;21058;-82
2022/11/17 03:47:43;;;;;;;3.25;2.40;;;11.00;99.90;;;;;;1931162;72;22311;-83
2022/11/17 03:50:37;;;;;;;3.65;2.20;;;11.00;99.90;;;;;;1894194;75;21091;-83
2022/11/17 03:56:16;;;;;;;2.60;1.82;;;11.10;99.90;;;;;;1931892;72;22313;-81
2022/11/17 03:59:11;;;;;;;3.65;2.08;;;11.10;99.90;;;;;;1900143;73;21131;-83
2022/11/17 04:02:03;;;;;;;3.47;2.10;;;11.20;99.90;;;;;;1914773;74;21123;-83
2022/11/17 04:05:14;;;;;;;3.30;2.40;;;11.20;99.90;;;;;;1884473;75;21060;-82
2022/11/17 04:08:06;;;;;;;5.72;2.58;;;11.20;99.90;;;;;;1875635;75;21130;-82
2022/11/17 04:16:46;;;;;;;4.05;2.65;;;11.10;99.90;;;;;;1954140;72;22234;-83
2022/11/17 04:22:17;;;;;;;3.83;2.70;;;11.20;99.90;;;;;;1938495;72;22184;-83
2022/11/17 04:28:35;;;;;;;4.25;2.62;;;11.20;99.90;;;;;;1893157;75;21103;-81
2022/11/17 04:31:14;;;;;;;5.83;2.80;;;11.30;99.90;;;;;;1872759;75;21076;-82
2022/11/17 04:36:52;;;;;;;3.67;2.45;;;11.20;99.90;;;;;;1943945;72;22146;-81
2022/11/17 04:39:44;;;;;;;2.98;2.20;;;11.10;99.90;;;;;;1923863;73;21136;-83
2022/11/17 04:42:35;;;;;;;3.47;2.12;;;11.00;99.90;;;;;;1932573;73;21094;-81
2022/11/17 04:48:09;;;;;;;3.70;1.95;;;11.10;99.90;;;;;;1948392;72;22188;-81
2022/11/17 04:51:01;;;;;;;2.90;1.92;;;11.00;99.90;;;;;;1932932;73;21059;-81
2022/11/17 04:56:37;;;;;;;5.55;2.00;;;11.10;99.90;;;;;;1932190;72;22146;-81
2022/11/17 04:59:28;;;;;;;3.47;1.90;;;11.10;99.90;;;;;;1900926;75;21078;-83
2022/11/17 05:02:20;;;;;;;2.17;1.72;;;11.20;99.90;;;;;;1890347;75;21142;-82
2022/11/17 05:07:52;;;;;;;2.83;1.72;;;11.30;99.90;;;;;;1942862;72;22192;-82
2022/11/17 05:25:33;;;;;;;4.28;2.77;;;11.10;99.90;;;;;;1894667;75;21094;-82
2022/11/17 05:28:24;;;;;;;5.00;2.62;;;11.10;99.90;;;;;;1884349;75;21184;-82
2022/11/17 05:31:16;;;;;;;4.42;2.33;;;11.00;99.90;;;;;;1890664;75;21080;-82
2022/11/17 05:34:11;;;;;;;3.55;2.17;;;11.00;99.90;;;;;;1878642;75;21101;-81
2022/11/17 05:37:02;;;;;;;2.37;1.98;;;11.00;99.90;;;;;;1893982;75;21133;-81
2022/11/17 05:39:54;;;;;;;3.00;2.05;;;11.00;99.90;;;;;;1884723;75;21110;-81
2022/11/17 05:42:46;;;;;;;3.20;2.17;;;10.90;99.90;;;;;;1874169;75;21056;-81
2022/11/17 05:45:39;;;;;;;2.85;1.82;;;10.90;99.90;;;;;;1893383;75;21102;-81
2022/11/17 05:51:12;;;;;;;1.82;1.47;;;10.90;99.90;;;;;;1943513;72;22198;-83
2022/11/17 05:54:03;;;;;;;3.12;1.70;;;10.90;99.90;;;;;;1887884;75;21171;-82
2022/11/17 05:59:40;;;;;;;3.02;1.50;;;11.00;99.90;;;;;;1951073;72;22173;-83
2022/11/17 06:02:36;;;;;;;4.53;2.22;;;11.10;99.90;;;;;;1917140;74;21106;-81
2022/11/17 06:05:27;;;;;;;3.08;1.90;;;11.20;99.90;;;;;;1925183;73;21098;-81
2022/11/17 06:08:19;;;;;;;5.75;2.00;;;11.20;99.90;;;;;;1932342;73;21181;-81
2022/11/17 06:11:11;;;;;;;3.33;1.60;;;11.20;99.90;;;;;;1916709;73;21106;-82
2022/11/17 06:16:45;;;;;;;2.60;1.72;;;11.20;99.90;;;;;;1940433;72;22260;-83
2022/11/17 06:22:20;;;;;;;3.62;2.00;;;11.40;99.90;;;;;;1945059;72;22193;-83
2022/11/17 06:25:12;;;;;;;4.20;2.17;;;11.30;99.90;;;;;;1914094;75;21140;-83
2022/11/17 06:28:09;;;;;;;2.55;1.90;;;11.30;99.90;;;;;;1890200;75;21171;-82
2022/11/17 06:31:01;;;;;;;2.77;1.40;;;11.30;99.90;;;;;;1875686;76;21153;-82
2022/11/17 06:36:33;;;;;;;4.35;1.60;;;11.20;99.90;;;;;;1944747;72;22847;-83
2022/11/17 06:39:24;;;;;;;2.90;2.00;;;11.20;99.90;;;;;;1904158;75;21217;-81
2022/11/17 06:42:16;;;;;;;4.20;1.85;;;11.20;99.90;;;;;;1883215;75;21100;-82
2022/11/17 06:45:10;;;;;;;3.47;1.60;;;11.20;99.90;;;;;;1878600;75;21123;-82
2022/11/17 06:48:05;;;;;;;2.67;1.75;;;11.30;99.90;;;;;;1885247;75;21099;-82
2022/11/17 06:50:57;;;;;;;5.95;2.27;;;11.30;99.90;;;;;;1886317;75;21063;-81
2022/11/17 06:53:48;;;;;;;3.25;2.20;;;11.40;99.90;;;;;;1819356;78;21121;-82
2022/11/17 06:56:43;;;;;;;2.75;1.90;;;11.20;99.90;;;;;;1895798;75;21305;-82
2022/11/17 06:59:34;;;;;;;2.80;1.87;;;11.30;99.90;;;;;;1890464;75;21114;-81
2022/11/17 07:02:26;;;;;;;3.42;1.77;;;11.40;99.90;;;;;;1884559;75;21168;-82
2022/11/17 07:07:59;;;;;;;6.87;2.10;;;11.30;99.90;;;;;;1962540;72;22146;-82
2022/11/17 07:10:53;;;;;;;4.25;1.72;;;11.20;99.90;;;;;;1891997;73;21215;-81
2022/11/17 07:13:44;;;;;;;3.50;1.82;;;11.40;99.90;;;;;;1897341;75;21636;-81
2022/11/17 07:16:36;;;;;;;2.30;1.40;;;11.50;99.90;;;;;;1902940;75;21070;-81
2022/11/17 07:22:07;;;;;;;2.70;1.65;;;11.40;99.90;;;;;;1940814;72;22638;-83
2022/11/17 07:24:59;;;;;;;2.85;1.75;;;11.40;99.90;;;;;;1893989;75;21090;-82
2022/11/17 07:27:58;;;;;;;3.05;1.90;;;11.50;99.90;;;;;;1904548;75;21181;-82
2022/11/17 07:30:50;;;;;;;3.75;1.82;;;11.50;99.90;;;;;;1902406;75;21213;-82
2022/11/17 07:36:23;;;;;;;10.18;1.98;;;11.60;99.90;;;;;;1930680;72;22793;-83
2022/11/17 07:39:15;;;;;;;2.70;1.60;;;11.70;99.90;;;;;;1898621;75;21121;-82
2022/11/17 07:42:09;;;;;;;4.97;1.82;;;11.80;99.90;;;;;;1896079;75;21554;-82
2022/11/17 07:45:00;;;;;;;5.05;1.77;;;11.80;99.90;;;;;;1883108;75;21082;-82
2022/11/17 07:47:58;;;;;;;5.87;1.17;;;11.90;99.90;;;;;;1899473;75;21546;-82
2022/11/17 07:53:31;;;;;;;2.75;1.40;;;12.10;99.90;;;;;;1951032;72;22270;-83
2022/11/17 07:56:24;;;;;;;2.70;1.70;;;12.30;99.90;;;;;;1916844;73;21215;-81
2022/11/17 07:59:16;;;;;;;3.42;1.45;;;12.40;99.90;;;;;;1914870;74;21130;-81
2022/11/17 08:02:11;;;;;;;2.80;1.10;;;12.40;99.90;;;;;;1881948;75;21356;-81
2022/11/17 08:05:03;;;;;;;2.80;1.52;;;12.50;99.90;;;;;;1930483;73;21147;-83
2022/11/17 08:07:57;;;;;;;4.00;1.90;;;12.50;99.90;;;;;;1924223;73;21078;-83
2022/11/17 08:10:49;;;;;;;4.83;2.47;;;12.50;99.90;;;;;;1942441;73;21136;-81
2022/11/17 08:13:41;;;;;;;3.98;2.17;;;12.50;99.90;;;;;;1916732;73;21109;-83
2022/11/17 08:16:33;;;;;;;8.88;3.15;;;12.40;99.90;;;;;;1916851;75;21084;-81
2022/11/17 08:22:06;;;;;;;8.65;2.65;;;12.30;99.90;;;;;;1950735;72;22253;-83
2022/11/17 08:24:57;;;;;;;5.40;2.83;;;12.30;99.90;;;;;;1916043;75;21075;-82
2022/11/17 08:27:50;;;;;;;4.80;2.40;;;12.20;99.90;;;;;;1916796;75;21082;-82
2022/11/17 08:30:43;;;;;;;4.60;2.20;;;12.20;99.90;;;;;;1936111;73;21086;-83
2022/11/17 08:36:15;;;;;;;155.22;19.10;;;12.30;99.90;;;;;;1930765;72;22295;-83
2022/11/17 08:41:53;;;;;;;9.08;3.10;;;12.40;99.90;;;;;;1948162;72;22692;-84
2022/11/17 08:44:44;;;;;;;6.67;2.80;;;12.40;99.90;;;;;;1889397;75;21106;-82
2022/11/17 08:47:39;;;;;;;5.70;2.72;;;12.40;99.90;;;;;;1893421;75;21165;-82
2022/11/17 08:50:31;;;;;;;6.03;3.05;;;12.40;99.90;;;;;;1887287;75;21115;-82
2022/11/17 08:53:22;;;;;;;11.28;3.40;;;12.40;99.90;;;;;;1902941;75;21048;-84
2022/11/17 08:58:53;;;;;;;11.68;3.60;;;12.50;99.90;;;;;;1937539;72;22645;-83
2022/11/17 09:01:45;;;;;;;16.05;4.55;;;12.50;99.90;;;;;;1876531;75;21252;-83
2022/11/17 09:07:18;;;;;;;4.08;2.47;;;12.60;99.90;;;;;;1950183;72;22186;-83
2022/11/17 09:12:49;;;;;;;10.60;3.37;;;12.70;99.90;;;;;;1929476;72;22530;-84
2022/11/17 09:15:40;;;;;;;6.55;2.87;;;12.80;99.90;;;;;;1905205;74;21160;-83
2022/11/17 09:18:32;;;;;;;6.42;3.25;;;12.90;99.90;;;;;;1925063;74;21058;-82
2022/11/17 09:21:24;;;;;;;10.53;2.83;;;13.10;99.90;;;;;;1903730;74;21085;-82
2022/11/17 09:24:19;;;;;;;14.28;3.70;;;13.10;99.90;;;;;;1902317;74;21163;-82
2022/11/17 09:27:12;;;;;;;13.00;3.60;;;13.30;99.90;;;;;;1908614;74;21094;-82
2022/11/17 09:30:06;;;;;;;5.85;3.45;;;13.40;99.90;;;;;;1897601;74;21611;-82
2022/11/17 09:32:59;;;;;;;3.45;2.70;;;13.50;99.90;;;;;;1886367;74;21095;-82
2022/11/17 09:35:50;;;;;;;5.12;2.70;;;13.60;99.90;;;;;;1890252;74;21113;-82
2022/11/17 09:41:29;;;;;;;9.18;2.72;;;13.50;99.90;;;;;;1940432;72;22150;-83
2022/11/17 09:44:29;;;;;;;7.87;2.55;;;13.50;99.90;;;;;;1893793;75;21047;-83
2022/11/17 09:47:24;;;;;;;4.10;2.70;;;13.50;99.90;;;;;;1907078;75;21078;-81
2022/11/17 09:50:21;;;;;;;10.32;3.87;;;13.50;99.90;;;;;;1902536;75;21152;-81
2022/11/17 09:53:16;;;;;;;7.92;2.67;;;13.60;99.90;;;;;;1890600;75;21106;-82
2022/11/17 09:56:11;;;;;;;5.37;3.08;;;13.60;99.90;;;;;;1887703;75;21566;-82
2022/11/17 09:59:10;;;;;;;5.55;2.72;;;13.60;99.90;;;;;;1916297;75;21127;-82
2022/11/17 10:01:59;;;;;;;6.87;2.62;;;13.70;99.90;;;;;;1883939;75;21101;-82
2022/11/17 10:07:32;;;;;;;5.97;2.50;;;13.90;99.90;;;;;;1933571;72;22193;-83
2022/11/17 10:13:15;;;;;;;4.75;2.52;;;13.90;99.90;;;;;;1928752;72;22154;-83
2022/11/17 10:21:31;;;;;;;6.20;3.10;;;14.10;99.90;;;;;;1926666;72;22214;-83
2022/11/17 10:24:37;;;;;;;7.87;3.17;;;14.30;99.90;;;;;;1892252;75;21155;-82
2022/11/17 10:27:31;;;;;;;13.62;3.72;;;14.40;99.90;;;;;;1878000;75;21074;-82
2022/11/17 10:30:27;;;;;;;8.20;3.42;;;14.40;99.90;;;;;;1877136;75;21177;-82
2022/11/17 10:33:21;;;;;;;4.05;3.17;;;14.40;99.90;;;;;;1893536;75;21649;-82
2022/11/17 10:36:20;;;;;;;5.85;3.40;;;14.40;99.90;;;;;;1903229;75;21648;-82
2022/11/17 10:39:18;;;;;;;8.33;3.47;;;14.40;99.90;;;;;;1876532;75;21196;-82
2022/11/17 10:42:20;;;;;;;6.72;3.55;;;14.40;99.90;;;;;;1844587;77;21171;-81
2022/11/17 10:45:17;;;;;;;7.65;3.85;;;14.40;99.90;;;;;;1898684;75;21143;-81
2022/11/17 10:48:22;;;;;;;5.97;3.80;;;14.50;99.90;;;;;;1878960;75;21107;-83
2022/11/17 10:51:26;;;;;;;6.37;3.60;;;14.50;99.90;;;;;;1881164;75;21241;-82
2022/11/17 10:54:22;;;;;;;5.42;3.60;;;14.50;99.90;;;;;;1872479;75;21059;-82
2022/11/17 10:57:17;;;;;;;7.03;3.52;;;14.50;99.90;;;;;;1872381;75;21163;-82
2022/11/17 11:00:23;;;;;;;7.53;3.22;;;14.50;99.90;;;;;;1876926;75;21411;-82
2022/11/17 11:03:19;;;;;;;10.32;3.72;;;14.40;99.90;;;;;;1872455;75;21114;-82
2022/11/17 11:06:23;;;;;;;5.58;3.95;;;14.40;99.90;;;;;;1895019;75;21100;-82
2022/11/17 11:09:18;;;;;;;8.00;3.62;;;14.50;99.90;;;;;;1881897;75;21129;-82
2022/11/17 11:12:14;;;;;;;9.03;5.30;;;14.60;99.90;;;;;;1881572;75;21083;-84
2022/11/17 11:15:09;;;;;;;9.58;5.00;;;14.60;99.90;;;;;;1883597;75;21853;-82
2022/11/17 11:18:00;;;;;;;6.42;3.62;;;14.70;99.90;;;;;;1892215;75;21110;-82
2022/11/17 11:20:58;;;;;;;4.97;3.17;;;14.80;99.90;;;;;;1873053;75;21173;-83
2022/11/17 11:26:38;;;;;;;6.62;3.50;;;15.00;99.90;;;;;;1942643;72;22218;-83
2022/11/17 11:29:35;;;;;;;6.97;4.60;;;14.90;99.90;;;;;;1907267;74;21734;-82
2022/11/17 11:35:44;;;;;;;5.20;3.10;;;15.00;99.90;;;;;;1934289;72;22283;-83
2022/11/17 11:41:39;;;;;;;7.80;4.30;;;14.90;99.90;;;;;;1924013;72;28239;-83
2022/11/17 11:44:39;;;;;;;8.10;3.70;;;15.10;99.90;;;;;;1874105;75;21587;-82
2022/11/17 11:47:44;;;;;;;6.03;3.77;;;15.10;99.90;;;;;;1872608;76;21614;-82
2022/11/17 11:53:20;;;;;;;7.85;3.98;;;15.10;99.90;;;;;;1943350;72;22733;-83
2022/11/17 11:56:19;;;;;;;9.73;4.42;;;15.10;99.90;;;;;;1894602;75;21111;-84
2022/11/17 11:59:15;;;;;;;6.65;3.22;;;15.10;99.90;;;;;;1889641;75;21095;-83
2022/11/17 12:02:16;;;;;;;6.08;3.90;;;15.10;99.90;;;;;;1874998;75;21164;-83
2022/11/17 12:07:56;;;;;;;6.70;3.25;;;15.00;99.90;;;;;;1932898;72;22238;-83
2022/11/17 12:10:51;;;;;;;6.22;3.25;;;15.00;99.90;;;;;;1900248;75;21121;-82
2022/11/17 12:16:38;;;;;;;6.12;2.72;;;15.10;99.90;;;;;;1956358;72;22264;-83
2022/11/17 12:19:52;;;;;;;6.08;2.72;;;15.20;99.90;;;;;;1930537;73;21530;-83
2022/11/17 12:23:05;;;;;;;7.50;3.15;;;15.40;99.90;;;;;;1925158;73;21641;-82
2022/11/17 12:25:58;;;;;;;6.72;2.20;;;15.50;99.90;;;;;;1931863;73;21168;-82
2022/11/17 12:31:45;;;;;;;5.55;2.05;;;15.60;99.90;;;;;;1971745;72;22149;-83
2022/11/17 12:37:26;;;;;;;7.90;1.90;;;15.70;99.90;;;;;;1933168;72;22278;-83
2022/11/17 12:40:42;;;;;;;5.83;2.00;;;15.80;99.90;;;;;;1905478;75;21573;-82
2022/11/17 12:43:34;;;;;;;1.45;1.02;;;15.80;99.90;;;;;;1896911;75;21097;-82
2022/11/17 12:46:29;;;;;;;4.25;1.37;;;15.70;99.90;;;;;;1897402;75;21103;-81
2022/11/17 12:49:23;;;;;;;4.22;1.67;;;15.90;99.90;;;;;;1898410;75;21172;-82
2022/11/17 12:52:18;;;;;;;2.37;1.17;;;15.90;99.90;;;;;;1902591;75;21131;-81
2022/11/17 12:57:59;;;;;;;3.15;1.42;;;16.00;99.90;;;;;;1922527;72;22659;-81
2022/11/17 13:00:56;;;;;;;8.45;3.40;;;16.10;99.90;;;;;;1907566;74;21164;-81
2022/11/17 13:03:52;;;;;;;8.30;3.60;;;16.00;99.90;;;;;;1890193;75;21132;-82
2022/11/17 13:07:00;;;;;;;5.58;3.17;;;15.80;99.90;;;;;;1896268;74;21051;-81
2022/11/17 13:09:55;;;;;;;9.60;3.87;;;15.70;99.90;;;;;;1898816;74;21203;-81
2022/11/17 13:12:48;;;;;;;8.35;3.27;;;15.80;99.90;;;;;;1908660;74;21604;-82
2022/11/17 13:15:41;;;;;;;5.03;2.60;;;16.00;99.90;;;;;;1918882;74;21102;-82
2022/11/17 13:18:35;;;;;;;6.30;1.87;;;16.00;99.90;;;;;;1896096;75;21098;-81
2022/11/17 13:21:32;;;;;;;6.97;2.58;;;16.10;99.90;;;;;;1901959;74;21109;-81
2022/11/17 13:24:31;;;;;;;9.15;3.47;;;16.20;99.90;;;;;;1901907;74;21112;-82
2022/11/17 13:27:26;;;;;;;7.05;3.67;;;16.20;99.90;;;;;;1888464;75;21063;-81
2022/11/17 13:33:02;;;;;;;3.37;1.32;;;16.10;99.90;;;;;;1935111;72;22206;-83
2022/11/17 13:38:49;;;;;;;3.55;1.17;;;16.40;99.90;;;;;;1945867;72;22706;-84
2022/11/17 13:41:41;;;;;;;3.27;1.10;;;16.50;99.90;;;;;;1892876;75;21486;-83
2022/11/17 13:44:34;;;;;;;3.35;0.98;;;16.60;99.90;;;;;;1907536;75;21155;-81
2022/11/17 13:47:44;;;;;;;3.70;1.20;;;16.70;99.90;;;;;;1887749;75;21131;-82
2022/11/17 13:50:38;;;;;;;3.83;1.25;;;16.60;99.90;;;;;;1879523;75;21597;-82
2022/11/17 13:53:32;;;;;;;6.40;2.85;;;16.80;99.90;;;;;;1883939;75;21103;-81
2022/11/17 13:56:28;;;;;;;7.37;3.17;;;16.80;99.90;;;;;;1899935;75;21116;-82
2022/11/17 14:02:24;;;;;;;6.05;2.70;;;16.80;99.90;;;;;;1943826;72;22213;-83
2022/11/17 14:05:24;;;;;;;6.65;2.75;;;16.80;99.90;;;;;;1911467;74;21106;-82
2022/11/17 14:08:25;;;;;;;6.92;2.80;;;16.80;99.90;;;;;;1904978;74;21135;-82
2022/11/17 14:14:00;;;;;;;6.62;3.15;;;16.90;99.90;;;;;;1971197;72;22600;-81
2022/11/17 14:16:52;;;;;;;5.20;2.80;;;16.90;99.90;;;;;;1916632;75;21579;-82
2022/11/17 14:19:43;;;;;;;7.67;3.30;;;16.90;99.90;;;;;;1917924;73;21051;-82
2022/11/17 14:22:34;;;;;;;6.37;3.25;;;16.90;99.90;;;;;;1916889;75;21237;-82
2022/11/17 14:25:26;;;;;;;17.42;6.47;;;16.80;99.90;;;;;;1915218;75;21098;-82
2022/11/17 14:28:22;;;;;;;9.98;3.30;;;16.70;99.90;;;;;;1907114;73;21213;-83
2022/11/17 14:31:14;;;;;;;8.80;3.40;;;16.60;99.90;;;;;;1930901;73;21059;-83
2022/11/17 14:34:06;;;;;;;9.03;3.35;;;16.50;99.90;;;;;;1916965;75;21541;-82
2022/11/17 14:36:58;;;;;;;7.70;3.22;;;16.50;99.90;;;;;;1916813;75;21113;-82
2022/11/17 14:39:50;;;;;;;9.98;2.77;;;16.40;99.90;;;;;;1919705;73;21098;-82
2022/11/17 14:42:41;;;;;;;9.95;3.00;;;16.30;99.90;;;;;;1930484;73;21200;-82
2022/11/17 14:45:34;;;;;;;9.23;3.95;;;16.30;99.90;;;;;;1917095;75;21097;-82
2022/11/17 14:48:26;;;;;;;9.33;3.45;;;16.30;99.90;;;;;;1939390;73;21129;-82
2022/11/17 14:51:18;;;;;;;11.25;3.77;;;16.30;99.90;;;;;;1939453;73;21255;-82
2022/11/17 14:54:10;;;;;;;8.93;3.65;;;16.20;99.90;;;;;;1939322;73;21207;-82
2022/11/17 14:57:01;;;;;;;7.50;3.70;;;16.20;99.90;;;;;;1934040;73;21505;-83
2022/11/17 14:59:53;;;;;;;8.20;3.08;;;16.10;99.90;;;;;;1916826;75;21133;-82
2022/11/17 15:02:45;;;;;;;7.00;3.47;;;16.10;99.90;;;;;;1939258;73;21154;-82
2022/11/17 15:05:39;;;;;;;5.65;2.35;;;16.00;99.90;;;;;;1939754;73;21577;-82
2022/11/17 15:08:31;;;;;;;4.95;1.72;;;15.70;99.90;;;;;;1916695;75;21093;-82
2022/11/17 15:11:23;;;;;;;7.83;1.95;;;15.70;99.90;;;;;;1930476;73;21076;-84
2022/11/17 15:14:15;;;;;;;4.90;1.50;;;15.70;99.90;;;;;;1920293;73;21138;-84
2022/11/17 15:17:07;;;;;;;3.25;1.50;;;15.70;99.90;;;;;;1916737;75;21149;-83
2022/11/17 15:20:00;;;;;;;3.92;1.50;;;15.70;99.90;;;;;;1917018;75;21138;-83
2022/11/17 15:22:52;;;;;;;5.03;1.80;;;15.70;99.90;;;;;;1916294;75;21641;-83
2022/11/17 15:25:45;;;;;;;3.98;1.20;;;15.70;99.90;;;;;;1916281;75;21522;-82
2022/11/17 15:28:37;;;;;;;2.75;0.70;;;15.60;99.90;;;;;;1938966;73;21176;-82
2022/11/17 15:31:30;;;;;;;2.22;0.70;;;16.10;99.90;;;;;;1916137;75;21118;-82
2022/11/17 15:34:21;;;;;;;3.17;1.20;;;16.20;99.90;;;;;;1916134;75;21174;-83
2022/11/17 15:37:13;;;;;;;5.22;1.15;;;16.30;99.90;;;;;;1915664;75;21529;-83
2022/11/17 15:40:06;;;;;;;2.52;1.00;;;16.30;99.90;;;;;;1922184;73;21140;-83
2022/11/17 15:42:57;;;;;;;4.87;1.80;;;16.20;99.90;;;;;;1927168;73;21110;-83
2022/11/17 15:45:49;;;;;;;2.30;0.93;;;16.20;99.90;;;;;;1932325;73;21214;-83
2022/11/17 15:48:42;;;;;;;4.17;1.02;;;16.10;99.90;;;;;;1916310;75;21145;-82
2022/11/17 15:51:34;;;;;;;4.00;0.88;;;16.10;99.90;;;;;;1938887;73;21514;-82
2022/11/17 15:54:25;;;;;;;3.05;1.17;;;16.20;99.90;;;;;;1915978;75;21648;-82
2022/11/17 15:57:17;;;;;;;7.50;1.85;;;16.00;99.90;;;;;;1916335;75;21145;-82
2022/11/17 16:00:12;;;;;;;4.30;2.00;;;15.80;99.90;;;;;;1930095;73;21094;-84
2022/11/17 16:03:05;;;;;;;5.22;1.98;;;15.70;99.90;;;;;;1917896;73;21208;-82
2022/11/17 16:05:56;;;;;;;4.12;1.72;;;15.50;99.90;;;;;;1916376;75;21202;-82
2022/11/17 16:11:29;;;;;;;4.80;1.95;;;15.20;99.90;;;;;;1949626;72;22135;-83
2022/11/17 16:14:21;;;;;;;6.00;2.27;;;15.30;99.90;;;;;;1883748;75;21139;-83
2022/11/17 16:17:12;;;;;;;5.58;1.60;;;15.30;99.90;;;;;;1883085;75;21232;-83
2022/11/17 16:20:03;;;;;;;5.53;1.32;;;15.40;99.90;;;;;;1884645;75;21162;-82
2022/11/17 16:22:58;;;;;;;2.08;0.98;;;15.30;99.90;;;;;;1887554;75;21169;-83
2022/11/17 16:25:50;;;;;;;3.37;0.80;;;15.30;99.90;;;;;;1883067;75;21120;-83
2022/11/17 16:28:42;;;;;;;3.47;1.42;;;15.40;99.90;;;;;;1904716;75;21091;-82
2022/11/17 16:31:36;;;;;;;3.92;1.30;;;15.30;99.90;;;;;;1882603;75;22185;-82
2022/11/17 16:34:27;;;;;;;4.00;2.08;;;15.40;99.90;;;;;;1872292;76;21111;-83
2022/11/17 16:37:19;;;;;;;2.80;1.77;;;15.30;99.90;;;;;;1885140;75;21769;-83
2022/11/17 16:40:12;;;;;;;4.87;2.00;;;15.20;99.90;;;;;;1882973;75;21120;-83
2022/11/17 16:43:03;;;;;;;5.10;1.55;;;15.10;99.90;;;;;;1901916;75;21515;-83
2022/11/17 16:45:55;;;;;;;4.92;1.37;;;15.10;99.90;;;;;;1891266;75;21099;-83
2022/11/17 16:48:47;;;;;;;3.60;1.22;;;15.00;99.90;;;;;;1890885;75;21084;-83
2022/11/17 16:51:39;;;;;;;3.77;1.50;;;15.00;99.90;;;;;;1902910;75;21170;-83
2022/11/17 16:54:31;;;;;;;5.53;1.80;;;15.00;99.90;;;;;;1883138;75;21217;-82
2022/11/17 16:57:23;;;;;;;4.97;2.25;;;14.90;99.90;;;;;;1884529;75;21159;-82
2022/11/17 17:00:17;;;;;;;8.78;2.77;;;14.90;99.90;;;;;;1887791;75;21133;-82
2022/11/17 17:03:08;;;;;;;6.75;2.77;;;14.90;99.90;;;;;;1904253;75;21134;-83
2022/11/17 17:06:03;;;;;;;7.42;3.05;;;14.90;99.90;;;;;;1882771;75;21315;-82
2022/11/17 17:08:56;;;;;;;6.17;2.77;;;14.80;99.90;;;;;;1883251;75;21198;-84
2022/11/17 17:11:47;;;;;;;8.08;3.42;;;14.70;99.90;;;;;;1885504;74;21199;-83
2022/11/17 17:14:39;;;;;;;6.45;2.83;;;14.70;99.90;;;;;;1888303;75;21068;-82
2022/11/17 17:17:31;;;;;;;4.90;2.58;;;14.70;99.90;;;;;;1901180;75;21130;-82
2022/11/17 17:20:22;;;;;;;8.88;3.98;;;14.60;99.90;;;;;;1893022;75;21122;-83
2022/11/17 17:23:14;;;;;;;6.78;3.30;;;14.60;99.90;;;;;;1893897;75;21117;-83
2022/11/17 17:26:08;;;;;;;12.40;5.55;;;14.60;99.90;;;;;;1888816;75;21123;-83
2022/11/17 17:29:02;;;;;;;7.05;2.50;;;14.50;99.90;;;;;;1884296;75;21157;-83
2022/11/17 17:31:54;;;;;;;5.65;3.05;;;14.60;99.90;;;;;;1881960;74;21064;-82
2022/11/17 17:34:45;;;;;;;7.67;4.58;;;14.70;99.90;;;;;;1883522;75;21107;-83
2022/11/17 17:37:36;;;;;;;10.75;5.80;;;14.70;99.90;;;;;;1887675;75;21190;-83
2022/11/17 17:40:28;;;;;;;8.93;4.53;;;14.70;99.90;;;;;;1893720;75;21133;-83
2022/11/17 17:43:21;;;;;;;9.90;4.92;;;14.60;99.90;;;;;;1893280;75;21114;-83
2022/11/17 17:46:14;;;;;;;11.40;6.72;;;14.60;99.90;;;;;;1893227;75;21095;-82
2022/11/17 17:49:06;;;;;;;8.93;5.15;;;14.50;99.90;;;;;;1888876;75;21157;-83
2022/11/17 17:51:57;;;;;;;6.95;3.85;;;14.60;99.90;;;;;;1884114;75;21550;-83
2022/11/17 17:54:49;;;;;;;9.48;4.53;;;14.50;99.90;;;;;;1875502;75;21059;-83
2022/11/17 17:57:40;;;;;;;8.28;4.85;;;14.50;99.90;;;;;;1893193;75;21103;-82
2022/11/17 18:00:32;;;;;;;9.90;6.20;;;14.40;99.90;;;;;;1890303;75;21139;-82
2022/11/17 18:03:24;;;;;;;10.58;6.72;;;14.40;99.90;;;;;;1885216;75;21061;-83
2022/11/17 18:06:19;;;;;;;5.70;3.70;;;14.30;99.90;;;;;;1873652;75;21130;-83
2022/11/17 18:09:12;;;;;;;7.72;3.85;;;14.30;99.90;;;;;;1897304;75;21188;-83
2022/11/17 18:12:06;;;;;;;7.87;2.85;;;14.40;99.90;;;;;;1882539;75;21116;-83